sensor_id;sensor_type;location;lat;lon;timestamp;temperature;humidity
41628;DHT22;27321;50.816;6.054;2023-03-01T01:18:37;1.90;62.40
41628;DHT22;27321;50.816;6.054;2023-03-01T01:21:39;1.90;62.60
41628;DHT22;27321;50.816;6.054;2023-03-01T01:24:41;1.90;62.50
41628;DHT22;27321;50.816;6.054;2023-03-01T01:27:42;1.90;62.50
41628;DHT22;27321;50.816;6.054;2023-03-01T01:30:43;1.90;62.50
41628;DHT22;27321;50.816;6.054;2023-03-01T01:33:45;1.90;62.40
41628;DHT22;27321;50.816;6.054;2023-03-01T01:36:53;1.90;62.30
41628;DHT22;27321;50.816;6.054;2023-03-01T01:39:54;1.90;62.10
41628;DHT22;27321;50.816;6.054;2023-03-01T01:42:55;1.90;62.10
41628;DHT22;27321;50.816;6.054;2023-03-01T01:45:59;1.90;62.10
41628;DHT22;27321;50.816;6.054;2023-03-01T01:49:07;1.90;62.20
41628;DHT22;27321;50.816;6.054;2023-03-01T01:52:30;1.90;62.00
41628;DHT22;27321;50.816;6.054;2023-03-01T01:55:32;1.80;62.00
41628;DHT22;27321;50.816;6.054;2023-03-01T01:58:34;1.80;62.00
41628;DHT22;27321;50.816;6.054;2023-03-01T02:01:36;1.80;61.90
41628;DHT22;27321;50.816;6.054;2023-03-01T02:04:38;1.80;62.40
41628;DHT22;27321;50.816;6.054;2023-03-01T02:07:41;1.70;62.30
41628;DHT22;27321;50.816;6.054;2023-03-01T02:10:42;1.70;62.20
41628;DHT22;27321;50.816;6.054;2023-03-01T02:13:44;1.70;62.20
41628;DHT22;27321;50.816;6.054;2023-03-01T02:16:47;1.60;62.30
41628;DHT22;27321;50.816;6.054;2023-03-01T02:20:14;1.70;62.50
41628;DHT22;27321;50.816;6.054;2023-03-01T02:23:20;1.60;62.30
41628;DHT22;27321;50.816;6.054;2023-03-01T02:26:35;1.60;62.20
41628;DHT22;27321;50.816;6.054;2023-03-01T02:29:41;1.60;62.60
41628;DHT22;27321;50.816;6.054;2023-03-01T02:32:44;1.60;62.50
41628;DHT22;27321;50.816;6.054;2023-03-01T02:35:45;1.60;62.50
41628;DHT22;27321;50.816;6.054;2023-03-01T02:38:48;1.60;62.80
41628;DHT22;27321;50.816;6.054;2023-03-01T02:41:53;1.50;62.60
41628;DHT22;27321;50.816;6.054;2023-03-01T02:44:55;1.50;62.60
41628;DHT22;27321;50.816;6.054;2023-03-01T02:47:57;1.50;62.50
41628;DHT22;27321;50.816;6.054;2023-03-01T02:54:36;1.40;62.50
41628;DHT22;27321;50.816;6.054;2023-03-01T02:57:49;1.40;62.60
41628;DHT22;27321;50.816;6.054;2023-03-01T03:00:53;1.40;62.40
41628;DHT22;27321;50.816;6.054;2023-03-01T03:03:54;1.40;62.40
41628;DHT22;27321;50.816;6.054;2023-03-01T03:06:55;1.40;62.50
41628;DHT22;27321;50.816;6.054;2023-03-01T03:09:56;1.40;62.40
41628;DHT22;27321;50.816;6.054;2023-03-01T03:13:09;1.30;62.30
41628;DHT22;27321;50.816;6.054;2023-03-01T03:16:12;1.30;62.30
41628;DHT22;27321;50.816;6.054;2023-03-01T03:19:13;1.20;63.30
41628;DHT22;27321;50.816;6.054;2023-03-01T03:22:14;1.20;63.10
41628;DHT22;27321;50.816;6.054;2023-03-01T03:25:16;1.20;63.00
41628;DHT22;27321;50.816;6.054;2023-03-01T03:28:18;1.10;63.20
41628;DHT22;27321;50.816;6.054;2023-03-01T03:31:19;1.10;63.20
41628;DHT22;27321;50.816;6.054;2023-03-01T03:34:20;1.10;63.00
41628;DHT22;27321;50.816;6.054;2023-03-01T03:37:21;1.20;63.00
41628;DHT22;27321;50.816;6.054;2023-03-01T03:40:47;1.20;62.80
41628;DHT22;27321;50.816;6.054;2023-03-01T03:43:50;1.20;62.50
41628;DHT22;27321;50.816;6.054;2023-03-01T03:46:51;1.10;63.10
41628;DHT22;27321;50.816;6.054;2023-03-01T03:49:52;1.10;62.80
41628;DHT22;27321;50.816;6.054;2023-03-01T03:52:53;1.10;62.90
41628;DHT22;27321;50.816;6.054;2023-03-01T03:55:54;1.10;62.70
41628;DHT22;27321;50.816;6.054;2023-03-01T03:58:55;1.10;62.80
41628;DHT22;27321;50.816;6.054;2023-03-01T04:01:56;1.10;62.90
41628;DHT22;27321;50.816;6.054;2023-03-01T04:04:57;1.10;62.80
41628;DHT22;27321;50.816;6.054;2023-03-01T04:07:58;1.00;62.80
41628;DHT22;27321;50.816;6.054;2023-03-01T04:11:03;1.00;62.60
41628;DHT22;27321;50.816;6.054;2023-03-01T04:14:25;1.00;62.60
41628;DHT22;27321;50.816;6.054;2023-03-01T04:17:26;0.90;62.70
41628;DHT22;27321;50.816;6.054;2023-03-01T04:20:30;0.90;62.90
41628;DHT22;27321;50.816;6.054;2023-03-01T04:23:31;0.80;62.80
41628;DHT22;27321;50.816;6.054;2023-03-01T04:26:32;0.80;62.70
41628;DHT22;27321;50.816;6.054;2023-03-01T04:29:33;0.80;62.80
41628;DHT22;27321;50.816;6.054;2023-03-01T04:32:34;0.80;62.60
41628;DHT22;27321;50.816;6.054;2023-03-01T04:35:36;0.70;62.30
41628;DHT22;27321;50.816;6.054;2023-03-01T04:38:38;0.70;62.60
41628;DHT22;27321;50.816;6.054;2023-03-01T04:41:40;0.80;63.00
41628;DHT22;27321;50.816;6.054;2023-03-01T04:44:41;0.70;62.40
41628;DHT22;27321;50.816;6.054;2023-03-01T04:47:43;0.70;62.70
41628;DHT22;27321;50.816;6.054;2023-03-01T04:50:46;0.70;62.70
41628;DHT22;27321;50.816;6.054;2023-03-01T04:53:47;0.70;62.10
41628;DHT22;27321;50.816;6.054;2023-03-01T04:56:48;0.60;62.60
41628;DHT22;27321;50.816;6.054;2023-03-01T04:59:49;0.60;62.50
41628;DHT22;27321;50.816;6.054;2023-03-01T05:03:01;0.50;62.80
41628;DHT22;27321;50.816;6.054;2023-03-01T05:06:02;0.60;62.70
41628;DHT22;27321;50.816;6.054;2023-03-01T05:09:03;0.50;62.70
41628;DHT22;27321;50.816;6.054;2023-03-01T05:12:05;0.50;62.80
41628;DHT22;27321;50.816;6.054;2023-03-01T05:15:06;0.50;62.70
41628;DHT22;27321;50.816;6.054;2023-03-01T05:18:07;0.50;62.70
41628;DHT22;27321;50.816;6.054;2023-03-01T05:21:13;0.50;62.60
41628;DHT22;27321;50.816;6.054;2023-03-01T05:24:17;0.50;62.50
41628;DHT22;27321;50.816;6.054;2023-03-01T05:27:19;0.50;62.30
41628;DHT22;27321;50.816;6.054;2023-03-01T05:30:22;0.40;63.00
41628;DHT22;27321;50.816;6.054;2023-03-01T05:33:24;0.30;63.50
41628;DHT22;27321;50.816;6.054;2023-03-01T05:36:26;0.30;63.50
41628;DHT22;27321;50.816;6.054;2023-03-01T05:39:29;0.30;63.10
41628;DHT22;27321;50.816;6.054;2023-03-01T05:42:30;0.30;62.90
41628;DHT22;27321;50.816;6.054;2023-03-01T05:45:31;0.30;63.40
41628;DHT22;27321;50.816;6.054;2023-03-01T05:48:35;0.30;63.00
41628;DHT22;27321;50.816;6.054;2023-03-01T05:51:36;0.30;62.90
41628;DHT22;27321;50.816;6.054;2023-03-01T05:54:37;0.20;63.10
41628;DHT22;27321;50.816;6.054;2023-03-01T05:57:39;0.20;63.40
41628;DHT22;27321;50.816;6.054;2023-03-01T06:00:40;0.10;63.20
41628;DHT22;27321;50.816;6.054;2023-03-01T06:03:42;0.20;63.40
41628;DHT22;27321;50.816;6.054;2023-03-01T06:06:43;0.20;63.00
41628;DHT22;27321;50.816;6.054;2023-03-01T06:09:44;0.10;63.10
41628;DHT22;27321;50.816;6.054;2023-03-01T06:12:45;0.10;63.00
41628;DHT22;27321;50.816;6.054;2023-03-01T06:15:46;0.10;63.10
41628;DHT22;27321;50.816;6.054;2023-03-01T06:18:47;0.20;63.00
41628;DHT22;27321;50.816;6.054;2023-03-01T06:21:48;0.20;62.90
41628;DHT22;27321;50.816;6.054;2023-03-01T06:24:49;0.20;62.60
41628;DHT22;27321;50.816;6.054;2023-03-01T06:27:51;0.20;62.60
41628;DHT22;27321;50.816;6.054;2023-03-01T06:30:55;0.20;62.50
41628;DHT22;27321;50.816;6.054;2023-03-01T06:33:56;0.20;62.60
41628;DHT22;27321;50.816;6.054;2023-03-01T06:36:57;0.20;62.60
41628;DHT22;27321;50.816;6.054;2023-03-01T06:39:58;0.20;62.80
41628;DHT22;27321;50.816;6.054;2023-03-01T06:42:59;0.20;62.80
41628;DHT22;27321;50.816;6.054;2023-03-01T06:46:00;0.30;62.70
41628;DHT22;27321;50.816;6.054;2023-03-01T06:49:01;0.30;62.60
41628;DHT22;27321;50.816;6.054;2023-03-01T06:52:05;0.30;62.70
41628;DHT22;27321;50.816;6.054;2023-03-01T06:55:06;0.30;62.70
41628;DHT22;27321;50.816;6.054;2023-03-01T06:58:09;0.30;62.80
41628;DHT22;27321;50.816;6.054;2023-03-01T07:01:11;0.40;62.80
41628;DHT22;27321;50.816;6.054;2023-03-01T07:04:13;0.40;62.40
41628;DHT22;27321;50.816;6.054;2023-03-01T07:07:17;0.40;62.50
41628;DHT22;27321;50.816;6.054;2023-03-01T07:10:18;0.40;62.90
41628;DHT22;27321;50.816;6.054;2023-03-01T07:13:19;0.40;63.50
41628;DHT22;27321;50.816;6.054;2023-03-01T07:16:21;0.30;64.60
41628;DHT22;27321;50.816;6.054;2023-03-01T07:19:22;0.30;64.80
41628;DHT22;27321;50.816;6.054;2023-03-01T07:22:23;0.30;65.30
41628;DHT22;27321;50.816;6.054;2023-03-01T07:25:24;0.30;65.80
41628;DHT22;27321;50.816;6.054;2023-03-01T07:28:26;0.30;66.20
41628;DHT22;27321;50.816;6.054;2023-03-01T07:31:27;0.40;66.20
41628;DHT22;27321;50.816;6.054;2023-03-01T07:34:28;0.50;66.10
41628;DHT22;27321;50.816;6.054;2023-03-01T07:37:29;0.50;66.20
41628;DHT22;27321;50.816;6.054;2023-03-01T07:40:30;0.50;66.50
41628;DHT22;27321;50.816;6.054;2023-03-01T07:43:32;0.60;66.30
41628;DHT22;27321;50.816;6.054;2023-03-01T07:46:33;0.70;66.60
41628;DHT22;27321;50.816;6.054;2023-03-01T07:49:34;0.80;66.40
41628;DHT22;27321;50.816;6.054;2023-03-01T07:52:35;0.80;65.90
41628;DHT22;27321;50.816;6.054;2023-03-01T07:55:36;0.80;66.60
41628;DHT22;27321;50.816;6.054;2023-03-01T07:58:39;0.80;67.00
41628;DHT22;27321;50.816;6.054;2023-03-01T08:01:43;0.80;67.00
41628;DHT22;27321;50.816;6.054;2023-03-01T08:04:44;1.00;66.60
41628;DHT22;27321;50.816;6.054;2023-03-01T08:07:45;1.20;65.90
41628;DHT22;27321;50.816;6.054;2023-03-01T08:10:46;1.20;66.10
41628;DHT22;27321;50.816;6.054;2023-03-01T08:13:50;1.20;66.50
41628;DHT22;27321;50.816;6.054;2023-03-01T08:16:51;1.20;66.60
41628;DHT22;27321;50.816;6.054;2023-03-01T08:19:52;1.40;65.80
41628;DHT22;27321;50.816;6.054;2023-03-01T08:22:53;1.40;65.80
41628;DHT22;27321;50.816;6.054;2023-03-01T08:25:53;1.40;66.10
41628;DHT22;27321;50.816;6.054;2023-03-01T08:28:54;1.40;66.30
41628;DHT22;27321;50.816;6.054;2023-03-01T08:31:56;1.50;65.70
41628;DHT22;27321;50.816;6.054;2023-03-01T08:34:57;1.40;65.30
41628;DHT22;27321;50.816;6.054;2023-03-01T08:37:58;1.40;64.80
41628;DHT22;27321;50.816;6.054;2023-03-01T08:41:00;1.40;64.60
41628;DHT22;27321;50.816;6.054;2023-03-01T08:44:12;1.40;64.60
41628;DHT22;27321;50.816;6.054;2023-03-01T08:47:17;1.60;64.70
41628;DHT22;27321;50.816;6.054;2023-03-01T08:50:18;1.60;64.20
41628;DHT22;27321;50.816;6.054;2023-03-01T08:53:20;1.60;64.50
41628;DHT22;27321;50.816;6.054;2023-03-01T08:56:20;1.70;63.90
41628;DHT22;27321;50.816;6.054;2023-03-01T08:59:21;1.80;64.00
41628;DHT22;27321;50.816;6.054;2023-03-01T09:02:22;1.90;63.90
41628;DHT22;27321;50.816;6.054;2023-03-01T09:05:23;2.00;62.90
41628;DHT22;27321;50.816;6.054;2023-03-01T09:08:24;2.00;63.60
41628;DHT22;27321;50.816;6.054;2023-03-01T09:11:26;2.00;63.10
41628;DHT22;27321;50.816;6.054;2023-03-01T09:14:27;2.10;62.70
41628;DHT22;27321;50.816;6.054;2023-03-01T09:17:28;2.20;62.90
41628;DHT22;27321;50.816;6.054;2023-03-01T09:20:30;2.30;62.20
41628;DHT22;27321;50.816;6.054;2023-03-01T09:23:36;2.30;61.70
41628;DHT22;27321;50.816;6.054;2023-03-01T09:26:40;2.30;62.10
41628;DHT22;27321;50.816;6.054;2023-03-01T09:29:42;2.50;61.50
41628;DHT22;27321;50.816;6.054;2023-03-01T09:32:44;2.50;61.60
41628;DHT22;27321;50.816;6.054;2023-03-01T09:35:46;2.40;61.90
41628;DHT22;27321;50.816;6.054;2023-03-01T09:39:06;2.50;61.90
41628;DHT22;27321;50.816;6.054;2023-03-01T09:42:12;2.60;61.10
41628;DHT22;27321;50.816;6.054;2023-03-01T09:45:26;2.60;61.50
41628;DHT22;27321;50.816;6.054;2023-03-01T09:48:41;2.70;60.90
41628;DHT22;27321;50.816;6.054;2023-03-01T09:52:00;2.80;60.60
41628;DHT22;27321;50.816;6.054;2023-03-01T09:55:20;2.60;60.90
41628;DHT22;27321;50.816;6.054;2023-03-01T09:58:59;2.70;61.40
41628;DHT22;27321;50.816;6.054;2023-03-01T10:08:58;3.10;60.80
41628;DHT22;27321;50.816;6.054;2023-03-01T10:12:02;3.10;60.40
41628;DHT22;27321;50.816;6.054;2023-03-01T10:15:35;3.10;60.40
41628;DHT22;27321;50.816;6.054;2023-03-01T10:18:46;3.10;59.90
41628;DHT22;27321;50.816;6.054;2023-03-01T10:21:54;3.20;60.50
41628;DHT22;27321;50.816;6.054;2023-03-01T10:24:59;3.20;59.90
41628;DHT22;27321;50.816;6.054;2023-03-01T10:28:29;3.30;59.80
41628;DHT22;27321;50.816;6.054;2023-03-01T10:31:49;3.30;59.40
41628;DHT22;27321;50.816;6.054;2023-03-01T10:34:51;3.30;59.50
41628;DHT22;27321;50.816;6.054;2023-03-01T10:38:07;3.40;59.90
41628;DHT22;27321;50.816;6.054;2023-03-01T10:41:09;3.50;59.20
41628;DHT22;27321;50.816;6.054;2023-03-01T10:44:38;3.50;59.20
41628;DHT22;27321;50.816;6.054;2023-03-01T10:47:46;3.50;59.00
41628;DHT22;27321;50.816;6.054;2023-03-01T10:50:49;3.50;59.10
41628;DHT22;27321;50.816;6.054;2023-03-01T10:53:51;3.50;58.70
41628;DHT22;27321;50.816;6.054;2023-03-01T10:57:04;3.50;58.80
41628;DHT22;27321;50.816;6.054;2023-03-01T11:00:26;3.60;58.30
41628;DHT22;27321;50.816;6.054;2023-03-01T11:03:35;3.60;58.20
41628;DHT22;27321;50.816;6.054;2023-03-01T11:06:41;3.60;58.40
41628;DHT22;27321;50.816;6.054;2023-03-01T11:09:42;3.70;58.10
41628;DHT22;27321;50.816;6.054;2023-03-01T11:12:43;3.70;58.90
41628;DHT22;27321;50.816;6.054;2023-03-01T11:16:07;3.80;58.40
41628;DHT22;27321;50.816;6.054;2023-03-01T11:22:19;4.20;56.80
41628;DHT22;27321;50.816;6.054;2023-03-01T11:25:26;4.30;57.80
41628;DHT22;27321;50.816;6.054;2023-03-01T11:28:30;4.50;57.50
41628;DHT22;27321;50.816;6.054;2023-03-01T11:31:32;4.60;57.10
41628;DHT22;27321;50.816;6.054;2023-03-01T11:34:45;4.70;56.40
41628;DHT22;27321;50.816;6.054;2023-03-01T11:41:06;4.80;54.80
41628;DHT22;27321;50.816;6.054;2023-03-01T11:44:23;4.70;54.30
41628;DHT22;27321;50.816;6.054;2023-03-01T11:47:54;4.50;54.40
41628;DHT22;27321;50.816;6.054;2023-03-01T11:51:12;4.50;55.00
41628;DHT22;27321;50.816;6.054;2023-03-01T12:03:16;4.60;54.10
41628;DHT22;27321;50.816;6.054;2023-03-01T12:06:52;4.70;54.80
41628;DHT22;27321;50.816;6.054;2023-03-01T12:10:26;4.80;54.40
41628;DHT22;27321;50.816;6.054;2023-03-01T12:20:51;4.90;54.30
41628;DHT22;27321;50.816;6.054;2023-03-01T12:27:52;5.00;53.80
41628;DHT22;27321;50.816;6.054;2023-03-01T12:49:55;5.50;52.30
41628;DHT22;27321;50.816;6.054;2023-03-01T12:53:01;5.50;52.20
41628;DHT22;27321;50.816;6.054;2023-03-01T12:56:11;5.50;53.00
41628;DHT22;27321;50.816;6.054;2023-03-01T12:59:25;5.50;53.80
41628;DHT22;27321;50.816;6.054;2023-03-01T13:02:37;5.50;53.60
41628;DHT22;27321;50.816;6.054;2023-03-01T13:06:19;5.60;52.70
41628;DHT22;27321;50.816;6.054;2023-03-01T13:09:43;5.60;52.20
41628;DHT22;27321;50.816;6.054;2023-03-01T13:13:26;5.60;52.30
41628;DHT22;27321;50.816;6.054;2023-03-01T13:19:29;5.70;51.40
41628;DHT22;27321;50.816;6.054;2023-03-01T13:22:33;5.60;51.20
41628;DHT22;27321;50.816;6.054;2023-03-01T13:25:34;5.70;51.50
41628;DHT22;27321;50.816;6.054;2023-03-01T13:35:01;5.80;51.10
41628;DHT22;27321;50.816;6.054;2023-03-01T13:38:38;5.90;50.90
41628;DHT22;27321;50.816;6.054;2023-03-01T13:41:50;5.90;49.70
41628;DHT22;27321;50.816;6.054;2023-03-01T13:44:52;5.90;49.00
41628;DHT22;27321;50.816;6.054;2023-03-01T13:47:56;5.90;49.60
41628;DHT22;27321;50.816;6.054;2023-03-01T13:51:02;6.00;49.90
41628;DHT22;27321;50.816;6.054;2023-03-01T13:54:04;6.10;48.90
41628;DHT22;27321;50.816;6.054;2023-03-01T13:57:05;6.00;48.90
41628;DHT22;27321;50.816;6.054;2023-03-01T14:00:36;6.00;49.60
41628;DHT22;27321;50.816;6.054;2023-03-01T14:03:42;6.00;50.10
41628;DHT22;27321;50.816;6.054;2023-03-01T14:06:44;6.10;50.60
41628;DHT22;27321;50.816;6.054;2023-03-01T14:09:53;6.20;50.50
41628;DHT22;27321;50.816;6.054;2023-03-01T14:13:24;6.30;50.40
41628;DHT22;27321;50.816;6.054;2023-03-01T14:16:48;6.30;49.50
41628;DHT22;27321;50.816;6.054;2023-03-01T14:20:01;6.30;49.10
41628;DHT22;27321;50.816;6.054;2023-03-01T14:23:12;6.30;49.50
41628;DHT22;27321;50.816;6.054;2023-03-01T14:26:23;6.30;48.60
41628;DHT22;27321;50.816;6.054;2023-03-01T14:32:30;6.50;48.40
41628;DHT22;27321;50.816;6.054;2023-03-01T14:35:35;6.50;47.50
41628;DHT22;27321;50.816;6.054;2023-03-01T14:38:41;6.50;47.00
41628;DHT22;27321;50.816;6.054;2023-03-01T14:41:43;6.50;46.70
41628;DHT22;27321;50.816;6.054;2023-03-01T14:44:47;6.50;46.40
41628;DHT22;27321;50.816;6.054;2023-03-01T14:47:50;6.40;46.80
41628;DHT22;27321;50.816;6.054;2023-03-01T14:50:51;6.40;46.50
41628;DHT22;27321;50.816;6.054;2023-03-01T14:53:53;6.40;47.00
41628;DHT22;27321;50.816;6.054;2023-03-01T14:56:59;6.40;47.00
41628;DHT22;27321;50.816;6.054;2023-03-01T15:00:05;6.40;47.70
41628;DHT22;27321;50.816;6.054;2023-03-01T15:03:11;6.50;48.20
41628;DHT22;27321;50.816;6.054;2023-03-01T15:06:20;6.50;48.40
41628;DHT22;27321;50.816;6.054;2023-03-01T15:09:23;6.60;47.90
41628;DHT22;27321;50.816;6.054;2023-03-01T15:18:30;6.60;47.30
41628;DHT22;27321;50.816;6.054;2023-03-01T15:21:38;6.50;47.70
41628;DHT22;27321;50.816;6.054;2023-03-01T15:24:39;6.50;48.30
41628;DHT22;27321;50.816;6.054;2023-03-01T15:27:45;6.50;47.50
41628;DHT22;27321;50.816;6.054;2023-03-01T15:30:54;6.50;47.60
41628;DHT22;27321;50.816;6.054;2023-03-01T15:34:21;6.60;48.00
41628;DHT22;27321;50.816;6.054;2023-03-01T15:37:46;6.50;47.30
41628;DHT22;27321;50.816;6.054;2023-03-01T15:40:49;6.50;47.40
41628;DHT22;27321;50.816;6.054;2023-03-01T15:43:52;6.50;47.20
41628;DHT22;27321;50.816;6.054;2023-03-01T15:46:57;6.50;47.20
41628;DHT22;27321;50.816;6.054;2023-03-01T15:49:59;6.50;47.20
41628;DHT22;27321;50.816;6.054;2023-03-01T15:53:05;6.50;46.70
41628;DHT22;27321;50.816;6.054;2023-03-01T15:56:08;6.50;46.80
41628;DHT22;27321;50.816;6.054;2023-03-01T15:59:10;6.50;47.00
41628;DHT22;27321;50.816;6.054;2023-03-01T16:02:13;6.50;47.40
41628;DHT22;27321;50.816;6.054;2023-03-01T16:05:22;6.50;47.40
41628;DHT22;27321;50.816;6.054;2023-03-01T16:08:25;6.50;47.50
41628;DHT22;27321;50.816;6.054;2023-03-01T16:11:26;6.50;47.20
41628;DHT22;27321;50.816;6.054;2023-03-01T16:14:27;6.40;47.50
41628;DHT22;27321;50.816;6.054;2023-03-01T16:17:28;6.40;47.50
41628;DHT22;27321;50.816;6.054;2023-03-01T16:20:29;6.50;47.80
41628;DHT22;27321;50.816;6.054;2023-03-01T16:23:30;6.50;47.70
41628;DHT22;27321;50.816;6.054;2023-03-01T16:26:31;6.40;48.00
41628;DHT22;27321;50.816;6.054;2023-03-01T16:29:35;6.40;47.90
41628;DHT22;27321;50.816;6.054;2023-03-01T16:32:41;6.30;47.80
41628;DHT22;27321;50.816;6.054;2023-03-01T16:35:43;6.30;48.40
41628;DHT22;27321;50.816;6.054;2023-03-01T16:38:44;6.30;48.10
41628;DHT22;27321;50.816;6.054;2023-03-01T16:41:49;6.20;48.30
41628;DHT22;27321;50.816;6.054;2023-03-01T16:44:54;6.30;48.90
41628;DHT22;27321;50.816;6.054;2023-03-01T16:47:56;6.30;48.90
41628;DHT22;27321;50.816;6.054;2023-03-01T16:51:00;6.20;48.80
41628;DHT22;27321;50.816;6.054;2023-03-01T16:54:02;6.10;49.00
41628;DHT22;27321;50.816;6.054;2023-03-01T16:57:05;6.10;49.20
41628;DHT22;27321;50.816;6.054;2023-03-01T17:00:07;6.10;49.80
41628;DHT22;27321;50.816;6.054;2023-03-01T17:03:13;6.10;49.80
41628;DHT22;27321;50.816;6.054;2023-03-01T17:06:17;6.00;49.90
41628;DHT22;27321;50.816;6.054;2023-03-01T17:09:20;6.00;50.00
41628;DHT22;27321;50.816;6.054;2023-03-01T17:12:22;5.90;50.20
41628;DHT22;27321;50.816;6.054;2023-03-01T17:15:23;5.80;50.60
41628;DHT22;27321;50.816;6.054;2023-03-01T17:18:25;5.80;50.60
41628;DHT22;27321;50.816;6.054;2023-03-01T17:21:26;5.70;50.70
41628;DHT22;27321;50.816;6.054;2023-03-01T17:24:27;5.60;50.80
41628;DHT22;27321;50.816;6.054;2023-03-01T17:27:29;5.70;51.10
41628;DHT22;27321;50.816;6.054;2023-03-01T17:30:34;5.60;51.20
41628;DHT22;27321;50.816;6.054;2023-03-01T17:33:36;5.60;51.20
41628;DHT22;27321;50.816;6.054;2023-03-01T17:36:37;5.60;51.20
41628;DHT22;27321;50.816;6.054;2023-03-01T17:39:43;5.60;51.40
41628;DHT22;27321;50.816;6.054;2023-03-01T17:42:45;5.70;51.50
41628;DHT22;27321;50.816;6.054;2023-03-01T17:45:46;5.70;51.00
41628;DHT22;27321;50.816;6.054;2023-03-01T17:48:50;5.70;51.30
41628;DHT22;27321;50.816;6.054;2023-03-01T17:51:52;5.70;51.20
41628;DHT22;27321;50.816;6.054;2023-03-01T17:54:56;5.60;51.30
41628;DHT22;27321;50.816;6.054;2023-03-01T17:57:57;5.60;51.20
41628;DHT22;27321;50.816;6.054;2023-03-01T18:01:14;5.60;51.40
41628;DHT22;27321;50.816;6.054;2023-03-01T18:04:17;5.60;51.30
41628;DHT22;27321;50.816;6.054;2023-03-01T18:07:19;5.60;51.40
41628;DHT22;27321;50.816;6.054;2023-03-01T18:10:20;5.50;51.60
41628;DHT22;27321;50.816;6.054;2023-03-01T18:13:22;5.50;51.90
41628;DHT22;27321;50.816;6.054;2023-03-01T18:16:23;5.40;52.00
41628;DHT22;27321;50.816;6.054;2023-03-01T18:19:24;5.40;52.30
41628;DHT22;27321;50.816;6.054;2023-03-01T18:22:25;5.40;52.00
41628;DHT22;27321;50.816;6.054;2023-03-01T18:25:26;5.40;52.10
41628;DHT22;27321;50.816;6.054;2023-03-01T18:28:28;5.40;51.70
41628;DHT22;27321;50.816;6.054;2023-03-01T18:31:30;5.20;51.50
41628;DHT22;27321;50.816;6.054;2023-03-01T18:34:32;5.20;51.80
41628;DHT22;27321;50.816;6.054;2023-03-01T18:37:34;5.10;51.60
41628;DHT22;27321;50.816;6.054;2023-03-01T18:40:35;5.00;51.60
41628;DHT22;27321;50.816;6.054;2023-03-01T18:43:36;5.00;51.80
41628;DHT22;27321;50.816;6.054;2023-03-01T18:46:40;4.90;51.70
41628;DHT22;27321;50.816;6.054;2023-03-01T18:49:41;4.90;51.90
41628;DHT22;27321;50.816;6.054;2023-03-01T18:52:42;4.90;51.90
41628;DHT22;27321;50.816;6.054;2023-03-01T18:55:43;4.80;52.20
41628;DHT22;27321;50.816;6.054;2023-03-01T18:58:44;4.80;52.20
41628;DHT22;27321;50.816;6.054;2023-03-01T19:01:45;4.80;52.10
41628;DHT22;27321;50.816;6.054;2023-03-01T19:04:49;4.80;52.40
41628;DHT22;27321;50.816;6.054;2023-03-01T19:07:50;4.90;52.50
41628;DHT22;27321;50.816;6.054;2023-03-01T19:11:00;4.90;52.40
41628;DHT22;27321;50.816;6.054;2023-03-01T19:14:03;5.00;52.20
41628;DHT22;27321;50.816;6.054;2023-03-01T19:17:04;5.00;52.20
41628;DHT22;27321;50.816;6.054;2023-03-01T19:20:06;5.00;52.10
41628;DHT22;27321;50.816;6.054;2023-03-01T19:23:08;4.90;52.40
41628;DHT22;27321;50.816;6.054;2023-03-01T19:26:11;4.80;52.60
41628;DHT22;27321;50.816;6.054;2023-03-01T19:29:14;4.80;52.50
41628;DHT22;27321;50.816;6.054;2023-03-01T19:32:18;4.70;52.70
41628;DHT22;27321;50.816;6.054;2023-03-01T19:35:19;4.60;52.90
41628;DHT22;27321;50.816;6.054;2023-03-01T19:38:20;4.50;53.20
41628;DHT22;27321;50.816;6.054;2023-03-01T19:41:22;4.50;53.40
41628;DHT22;27321;50.816;6.054;2023-03-01T19:44:23;4.40;53.50
41628;DHT22;27321;50.816;6.054;2023-03-01T19:47:24;4.40;53.80
41628;DHT22;27321;50.816;6.054;2023-03-01T19:50:25;4.40;53.60
41628;DHT22;27321;50.816;6.054;2023-03-01T19:53:26;4.40;53.70
41628;DHT22;27321;50.816;6.054;2023-03-01T19:56:28;4.40;53.80
41628;DHT22;27321;50.816;6.054;2023-03-01T19:59:29;4.30;54.10
41628;DHT22;27321;50.816;6.054;2023-03-01T20:02:30;4.30;54.10
41628;DHT22;27321;50.816;6.054;2023-03-01T20:05:33;4.30;54.00
41628;DHT22;27321;50.816;6.054;2023-03-01T20:08:35;4.30;54.10
41628;DHT22;27321;50.816;6.054;2023-03-01T20:11:36;4.30;54.10
41628;DHT22;27321;50.816;6.054;2023-03-01T20:14:38;4.40;54.10
41628;DHT22;27321;50.816;6.054;2023-03-01T20:17:38;4.40;54.20
41628;DHT22;27321;50.816;6.054;2023-03-01T20:20:40;4.50;54.40
41628;DHT22;27321;50.816;6.054;2023-03-01T20:23:41;4.50;53.80
41628;DHT22;27321;50.816;6.054;2023-03-01T20:26:42;4.60;54.10
41628;DHT22;27321;50.816;6.054;2023-03-01T20:29:43;4.60;54.00
41628;DHT22;27321;50.816;6.054;2023-03-01T20:32:45;4.60;54.50
41628;DHT22;27321;50.816;6.054;2023-03-01T20:35:46;4.60;54.50
41628;DHT22;27321;50.816;6.054;2023-03-01T20:38:47;4.60;54.70
41628;DHT22;27321;50.816;6.054;2023-03-01T20:41:48;4.60;54.70
41628;DHT22;27321;50.816;6.054;2023-03-01T20:44:49;4.50;54.70
41628;DHT22;27321;50.816;6.054;2023-03-01T20:47:50;4.50;55.10
41628;DHT22;27321;50.816;6.054;2023-03-01T20:50:52;4.60;54.90
41628;DHT22;27321;50.816;6.054;2023-03-01T20:53:53;4.50;54.70
41628;DHT22;27321;50.816;6.054;2023-03-01T20:56:54;4.50;55.00
41628;DHT22;27321;50.816;6.054;2023-03-01T20:59:55;4.50;55.00
41628;DHT22;27321;50.816;6.054;2023-03-01T21:02:56;4.50;54.90
41628;DHT22;27321;50.816;6.054;2023-03-01T21:05:59;4.50;54.80
41628;DHT22;27321;50.816;6.054;2023-03-01T21:09:01;4.50;55.00
41628;DHT22;27321;50.816;6.054;2023-03-01T21:12:03;4.50;54.90
41628;DHT22;27321;50.816;6.054;2023-03-01T21:15:05;4.40;55.10
41628;DHT22;27321;50.816;6.054;2023-03-01T21:18:06;4.30;55.40
41628;DHT22;27321;50.816;6.054;2023-03-01T21:21:13;4.30;55.20
41628;DHT22;27321;50.816;6.054;2023-03-01T21:24:16;4.20;55.40
41628;DHT22;27321;50.816;6.054;2023-03-01T21:27:18;4.10;55.10
41628;DHT22;27321;50.816;6.054;2023-03-01T21:30:19;4.10;55.50
41628;DHT22;27321;50.816;6.054;2023-03-01T21:33:20;4.10;55.50
41628;DHT22;27321;50.816;6.054;2023-03-01T21:36:23;4.10;55.50
41628;DHT22;27321;50.816;6.054;2023-03-01T21:39:25;4.10;55.70
41628;DHT22;27321;50.816;6.054;2023-03-01T21:42:28;4.10;55.80
41628;DHT22;27321;50.816;6.054;2023-03-01T21:45:33;4.10;55.70
41628;DHT22;27321;50.816;6.054;2023-03-01T21:48:35;4.00;56.00
41628;DHT22;27321;50.816;6.054;2023-03-01T21:51:36;4.00;56.00
41628;DHT22;27321;50.816;6.054;2023-03-01T21:54:37;4.00;56.10
41628;DHT22;27321;50.816;6.054;2023-03-01T21:57:38;3.90;56.00
41628;DHT22;27321;50.816;6.054;2023-03-01T22:00:44;3.90;56.30
41628;DHT22;27321;50.816;6.054;2023-03-01T22:03:46;3.90;56.40
41628;DHT22;27321;50.816;6.054;2023-03-01T22:06:48;3.90;56.60
41628;DHT22;27321;50.816;6.054;2023-03-01T22:09:49;3.80;56.70
41628;DHT22;27321;50.816;6.054;2023-03-01T22:12:50;3.80;56.90
41628;DHT22;27321;50.816;6.054;2023-03-01T22:15:51;3.80;56.80